sensor_id;sensor_type;location;lat;lon;timestamp;P1;durP1;ratioP1;P2;durP2;ratioP2
14613;SDS011;7393;51.446;6.800;2023-12-20T00:02:15;16.30;;;11.37;;
14613;SDS011;7393;51.446;6.800;2023-12-20T00:04:42;16.20;;;11.27;;
14613;SDS011;7393;51.446;6.800;2023-12-20T00:07:09;18.50;;;11.17;;
14613;SDS011;7393;51.446;6.800;2023-12-20T00:09:35;18.53;;;11.80;;
14613;SDS011;7393;51.446;6.800;2023-12-20T00:12:04;17.67;;;10.90;;
14613;SDS011;7393;51.446;6.800;2023-12-20T00:14:31;17.00;;;10.87;;
14613;SDS011;7393;51.446;6.800;2023-12-20T00:16:57;17.57;;;10.67;;
14613;SDS011;7393;51.446;6.800;2023-12-20T00:19:24;17.50;;;10.80;;
14613;SDS011;7393;51.446;6.800;2023-12-20T00:21:51;17.90;;;10.57;;
14613;SDS011;7393;51.446;6.800;2023-12-20T00:24:18;14.50;;;9.90;;
14613;SDS011;7393;51.446;6.800;2023-12-20T00:26:45;16.20;;;9.73;;
14613;SDS011;7393;51.446;6.800;2023-12-20T00:29:13;17.47;;;9.27;;
14613;SDS011;7393;51.446;6.800;2023-12-20T00:31:40;17.27;;;9.20;;
14613;SDS011;7393;51.446;6.800;2023-12-20T00:34:07;13.60;;;8.70;;
14613;SDS011;7393;51.446;6.800;2023-12-20T00:36:34;16.60;;;9.03;;
14613;SDS011;7393;51.446;6.800;2023-12-20T00:39:00;15.77;;;8.03;;
14613;SDS011;7393;51.446;6.800;2023-12-20T00:41:27;12.93;;;7.93;;
14613;SDS011;7393;51.446;6.800;2023-12-20T00:43:54;16.43;;;8.33;;
14613;SDS011;7393;51.446;6.800;2023-12-20T00:46:22;12.90;;;7.07;;
14613;SDS011;7393;51.446;6.800;2023-12-20T00:48:49;11.27;;;7.17;;
14613;SDS011;7393;51.446;6.800;2023-12-20T00:51:16;14.83;;;7.93;;
14613;SDS011;7393;51.446;6.800;2023-12-20T00:53:42;15.17;;;6.90;;
14613;SDS011;7393;51.446;6.800;2023-12-20T00:56:09;12.80;;;7.53;;
14613;SDS011;7393;51.446;6.800;2023-12-20T00:58:36;18.47;;;8.13;;
14613;SDS011;7393;51.446;6.800;2023-12-20T01:01:03;16.33;;;8.17;;
14613;SDS011;7393;51.446;6.800;2023-12-20T01:03:31;14.63;;;7.70;;
14613;SDS011;7393;51.446;6.800;2023-12-20T01:05:58;14.00;;;7.57;;
14613;SDS011;7393;51.446;6.800;2023-12-20T01:08:24;17.90;;;8.50;;
14613;SDS011;7393;51.446;6.800;2023-12-20T01:10:51;16.17;;;8.17;;
14613;SDS011;7393;51.446;6.800;2023-12-20T01:13:18;15.60;;;9.00;;
14613;SDS011;7393;51.446;6.800;2023-12-20T01:15:45;15.90;;;8.80;;
14613;SDS011;7393;51.446;6.800;2023-12-20T01:18:12;16.83;;;9.10;;
14613;SDS011;7393;51.446;6.800;2023-12-20T01:20:40;17.10;;;8.97;;
14613;SDS011;7393;51.446;6.800;2023-12-20T01:23:07;16.80;;;9.03;;
14613;SDS011;7393;51.446;6.800;2023-12-20T01:25:34;13.13;;;8.40;;
14613;SDS011;7393;51.446;6.800;2023-12-20T01:28:01;23.00;;;10.17;;
14613;SDS011;7393;51.446;6.800;2023-12-20T01:30:29;15.57;;;9.17;;
14613;SDS011;7393;51.446;6.800;2023-12-20T01:32:56;14.07;;;8.83;;
14613;SDS011;7393;51.446;6.800;2023-12-20T01:35:22;12.53;;;7.50;;
14613;SDS011;7393;51.446;6.800;2023-12-20T01:37:50;13.83;;;8.60;;
14613;SDS011;7393;51.446;6.800;2023-12-20T01:40:16;15.03;;;8.27;;
14613;SDS011;7393;51.446;6.800;2023-12-20T01:42:43;17.10;;;7.73;;
14613;SDS011;7393;51.446;6.800;2023-12-20T01:45:10;15.03;;;7.70;;
14613;SDS011;7393;51.446;6.800;2023-12-20T01:47:36;15.37;;;7.20;;
14613;SDS011;7393;51.446;6.800;2023-12-20T01:50:04;13.13;;;6.80;;
14613;SDS011;7393;51.446;6.800;2023-12-20T01:52:33;17.03;;;6.70;;
14613;SDS011;7393;51.446;6.800;2023-12-20T01:55:02;17.43;;;6.20;;
14613;SDS011;7393;51.446;6.800;2023-12-20T01:57:36;16.73;;;6.43;;
14613;SDS011;7393;51.446;6.800;2023-12-20T02:00:03;12.33;;;5.73;;
14613;SDS011;7393;51.446;6.800;2023-12-20T02:02:31;13.67;;;6.47;;
14613;SDS011;7393;51.446;6.800;2023-12-20T02:04:57;14.37;;;6.47;;
14613;SDS011;7393;51.446;6.800;2023-12-20T02:07:24;12.53;;;6.10;;
14613;SDS011;7393;51.446;6.800;2023-12-20T02:09:52;13.10;;;6.07;;
14613;SDS011;7393;51.446;6.800;2023-12-20T02:12:20;14.13;;;7.00;;
14613;SDS011;7393;51.446;6.800;2023-12-20T02:14:48;20.27;;;7.50;;
14613;SDS011;7393;51.446;6.800;2023-12-20T02:17:15;16.97;;;7.50;;
14613;SDS011;7393;51.446;6.800;2023-12-20T02:19:41;16.00;;;7.17;;
14613;SDS011;7393;51.446;6.800;2023-12-20T02:22:11;14.93;;;6.67;;
14613;SDS011;7393;51.446;6.800;2023-12-20T02:24:38;17.37;;;7.47;;
14613;SDS011;7393;51.446;6.800;2023-12-20T02:27:05;13.70;;;6.93;;
14613;SDS011;7393;51.446;6.800;2023-12-20T02:29:33;14.03;;;7.30;;
14613;SDS011;7393;51.446;6.800;2023-12-20T02:32:00;12.77;;;7.23;;
14613;SDS011;7393;51.446;6.800;2023-12-20T02:34:26;14.33;;;7.13;;
14613;SDS011;7393;51.446;6.800;2023-12-20T02:36:53;22.83;;;6.70;;
14613;SDS011;7393;51.446;6.800;2023-12-20T02:39:22;23.10;;;6.53;;
14613;SDS011;7393;51.446;6.800;2023-12-20T02:41:48;14.17;;;6.77;;
14613;SDS011;7393;51.446;6.800;2023-12-20T02:44:15;18.93;;;6.33;;
14613;SDS011;7393;51.446;6.800;2023-12-20T02:46:42;17.47;;;6.47;;
14613;SDS011;7393;51.446;6.800;2023-12-20T02:49:09;19.73;;;6.40;;
14613;SDS011;7393;51.446;6.800;2023-12-20T02:51:35;15.63;;;6.10;;
14613;SDS011;7393;51.446;6.800;2023-12-20T02:54:03;12.10;;;6.00;;
14613;SDS011;7393;51.446;6.800;2023-12-20T02:56:32;19.67;;;6.03;;
14613;SDS011;7393;51.446;6.800;2023-12-20T02:58:58;12.47;;;4.93;;
14613;SDS011;7393;51.446;6.800;2023-12-20T03:01:25;13.40;;;5.07;;
14613;SDS011;7393;51.446;6.800;2023-12-20T03:03:52;18.20;;;5.70;;
14613;SDS011;7393;51.446;6.800;2023-12-20T03:06:19;17.67;;;5.27;;
14613;SDS011;7393;51.446;6.800;2023-12-20T03:08:46;15.63;;;5.60;;
14613;SDS011;7393;51.446;6.800;2023-12-20T03:11:13;15.00;;;5.30;;
14613;SDS011;7393;51.446;6.800;2023-12-20T03:13:41;14.10;;;4.53;;
14613;SDS011;7393;51.446;6.800;2023-12-20T03:16:08;11.23;;;4.43;;
14613;SDS011;7393;51.446;6.800;2023-12-20T03:18:35;17.57;;;4.73;;
14613;SDS011;7393;51.446;6.800;2023-12-20T03:21:02;15.47;;;4.67;;
14613;SDS011;7393;51.446;6.800;2023-12-20T03:23:28;17.40;;;4.07;;
14613;SDS011;7393;51.446;6.800;2023-12-20T03:25:55;17.63;;;5.10;;
14613;SDS011;7393;51.446;6.800;2023-12-20T03:28:22;12.90;;;3.73;;
14613;SDS011;7393;51.446;6.800;2023-12-20T03:30:50;10.53;;;3.20;;
14613;SDS011;7393;51.446;6.800;2023-12-20T03:33:17;11.27;;;3.50;;
14613;SDS011;7393;51.446;6.800;2023-12-20T03:35:43;8.07;;;3.13;;
14613;SDS011;7393;51.446;6.800;2023-12-20T03:38:10;10.53;;;3.77;;
14613;SDS011;7393;51.446;6.800;2023-12-20T03:40:37;9.13;;;3.33;;
14613;SDS011;7393;51.446;6.800;2023-12-20T03:43:04;12.53;;;3.30;;
14613;SDS011;7393;51.446;6.800;2023-12-20T03:45:31;12.80;;;3.37;;
14613;SDS011;7393;51.446;6.800;2023-12-20T03:47:59;9.23;;;2.67;;
14613;SDS011;7393;51.446;6.800;2023-12-20T03:50:26;13.17;;;2.90;;
14613;SDS011;7393;51.446;6.800;2023-12-20T03:52:53;11.60;;;3.00;;
14613;SDS011;7393;51.446;6.800;2023-12-20T03:55:19;8.07;;;2.83;;
14613;SDS011;7393;51.446;6.800;2023-12-20T03:57:46;15.60;;;3.47;;
14613;SDS011;7393;51.446;6.800;2023-12-20T04:00:13;13.10;;;2.93;;
14613;SDS011;7393;51.446;6.800;2023-12-20T04:02:41;13.57;;;3.07;;
14613;SDS011;7393;51.446;6.800;2023-12-20T04:05:09;10.13;;;3.07;;
14613;SDS011;7393;51.446;6.800;2023-12-20T04:07:36;8.17;;;2.50;;
14613;SDS011;7393;51.446;6.800;2023-12-20T04:10:03;10.97;;;3.27;;
14613;SDS011;7393;51.446;6.800;2023-12-20T04:12:31;10.80;;;2.33;;
14613;SDS011;7393;51.446;6.800;2023-12-20T04:14:58;15.00;;;2.93;;
14613;SDS011;7393;51.446;6.800;2023-12-20T04:17:25;14.47;;;3.57;;
14613;SDS011;7393;51.446;6.800;2023-12-20T04:19:52;14.17;;;3.27;;
14613;SDS011;7393;51.446;6.800;2023-12-20T04:22:20;10.07;;;2.83;;
14613;SDS011;7393;51.446;6.800;2023-12-20T04:24:46;9.70;;;2.80;;
14613;SDS011;7393;51.446;6.800;2023-12-20T04:27:13;13.37;;;2.77;;
14613;SDS011;7393;51.446;6.800;2023-12-20T04:29:40;12.80;;;3.47;;
14613;SDS011;7393;51.446;6.800;2023-12-20T04:32:07;14.00;;;3.30;;
14613;SDS011;7393;51.446;6.800;2023-12-20T04:34:33;11.30;;;3.27;;
14613;SDS011;7393;51.446;6.800;2023-12-20T04:37:00;12.77;;;3.40;;
14613;SDS011;7393;51.446;6.800;2023-12-20T04:39:29;11.07;;;3.63;;
14613;SDS011;7393;51.446;6.800;2023-12-20T04:41:55;12.13;;;3.63;;
14613;SDS011;7393;51.446;6.800;2023-12-20T04:44:22;20.73;;;4.03;;
14613;SDS011;7393;51.446;6.800;2023-12-20T04:46:49;18.43;;;4.17;;
14613;SDS011;7393;51.446;6.800;2023-12-20T04:49:16;18.10;;;4.20;;
14613;SDS011;7393;51.446;6.800;2023-12-20T04:51:43;16.67;;;4.13;;
14613;SDS011;7393;51.446;6.800;2023-12-20T04:54:09;10.67;;;4.03;;
14613;SDS011;7393;51.446;6.800;2023-12-20T04:56:38;15.43;;;4.40;;
14613;SDS011;7393;51.446;6.800;2023-12-20T04:59:04;14.10;;;3.90;;
14613;SDS011;7393;51.446;6.800;2023-12-20T05:01:31;16.77;;;4.67;;
14613;SDS011;7393;51.446;6.800;2023-12-20T05:03:58;13.63;;;4.00;;
14613;SDS011;7393;51.446;6.800;2023-12-20T05:06:25;12.40;;;4.90;;
14613;SDS011;7393;51.446;6.800;2023-12-20T05:08:52;12.00;;;4.43;;
14613;SDS011;7393;51.446;6.800;2023-12-20T05:11:18;15.27;;;5.00;;
14613;SDS011;7393;51.446;6.800;2023-12-20T05:13:47;20.40;;;4.93;;
14613;SDS011;7393;51.446;6.800;2023-12-20T05:16:13;11.87;;;4.30;;
14613;SDS011;7393;51.446;6.800;2023-12-20T05:18:42;20.03;;;5.07;;
14613;SDS011;7393;51.446;6.800;2023-12-20T05:21:09;17.73;;;5.47;;
14613;SDS011;7393;51.446;6.800;2023-12-20T05:23:36;13.10;;;4.83;;
14613;SDS011;7393;51.446;6.800;2023-12-20T05:26:03;20.07;;;5.30;;
14613;SDS011;7393;51.446;6.800;2023-12-20T05:28:29;19.20;;;5.27;;
14613;SDS011;7393;51.446;6.800;2023-12-20T05:30:57;12.57;;;5.33;;
14613;SDS011;7393;51.446;6.800;2023-12-20T05:33:24;19.33;;;5.57;;
14613;SDS011;7393;51.446;6.800;2023-12-20T05:35:51;12.73;;;5.17;;
14613;SDS011;7393;51.446;6.800;2023-12-20T05:38:18;13.73;;;5.37;;
14613;SDS011;7393;51.446;6.800;2023-12-20T05:40:44;17.53;;;5.60;;
14613;SDS011;7393;51.446;6.800;2023-12-20T05:43:11;20.47;;;5.53;;
14613;SDS011;7393;51.446;6.800;2023-12-20T05:45:38;14.43;;;4.93;;
14613;SDS011;7393;51.446;6.800;2023-12-20T05:48:06;17.80;;;5.50;;
14613;SDS011;7393;51.446;6.800;2023-12-20T05:50:33;17.40;;;5.27;;
14613;SDS011;7393;51.446;6.800;2023-12-20T05:53:00;20.83;;;5.33;;
14613;SDS011;7393;51.446;6.800;2023-12-20T05:55:27;14.17;;;5.20;;
14613;SDS011;7393;51.446;6.800;2023-12-20T05:57:54;17.00;;;5.20;;
14613;SDS011;7393;51.446;6.800;2023-12-20T06:00:20;9.83;;;4.80;;
14613;SDS011;7393;51.446;6.800;2023-12-20T06:02:47;12.70;;;4.90;;
14613;SDS011;7393;51.446;6.800;2023-12-20T06:05:15;20.60;;;5.87;;
14613;SDS011;7393;51.446;6.800;2023-12-20T06:07:42;11.13;;;4.87;;
14613;SDS011;7393;51.446;6.800;2023-12-20T06:10:10;20.07;;;5.60;;
14613;SDS011;7393;51.446;6.800;2023-12-20T06:12:36;19.13;;;5.27;;
14613;SDS011;7393;51.446;6.800;2023-12-20T06:15:03;14.13;;;5.23;;
14613;SDS011;7393;51.446;6.800;2023-12-20T06:17:31;16.87;;;5.23;;
14613;SDS011;7393;51.446;6.800;2023-12-20T06:19:58;18.70;;;5.97;;
14613;SDS011;7393;51.446;6.800;2023-12-20T06:22:26;18.23;;;5.37;;
14613;SDS011;7393;51.446;6.800;2023-12-20T06:24:53;14.80;;;4.90;;
14613;SDS011;7393;51.446;6.800;2023-12-20T06:27:19;13.23;;;5.33;;
14613;SDS011;7393;51.446;6.800;2023-12-20T06:29:46;13.40;;;5.07;;
14613;SDS011;7393;51.446;6.800;2023-12-20T06:32:13;21.07;;;5.40;;
14613;SDS011;7393;51.446;6.800;2023-12-20T06:34:40;19.10;;;5.67;;
14613;SDS011;7393;51.446;6.800;2023-12-20T06:37:07;17.27;;;4.63;;
14613;SDS011;7393;51.446;6.800;2023-12-20T06:39:35;16.60;;;4.87;;
14613;SDS011;7393;51.446;6.800;2023-12-20T06:42:02;20.03;;;5.77;;
14613;SDS011;7393;51.446;6.800;2023-12-20T06:44:29;19.40;;;7.27;;
14613;SDS011;7393;51.446;6.800;2023-12-20T06:46:56;17.67;;;5.23;;
14613;SDS011;7393;51.446;6.800;2023-12-20T06:49:23;19.60;;;5.40;;
14613;SDS011;7393;51.446;6.800;2023-12-20T06:51:50;20.20;;;5.23;;
14613;SDS011;7393;51.446;6.800;2023-12-20T06:54:16;18.80;;;5.37;;
14613;SDS011;7393;51.446;6.800;2023-12-20T06:56:45;16.53;;;5.27;;
14613;SDS011;7393;51.446;6.800;2023-12-20T06:59:11;16.67;;;4.93;;
14613;SDS011;7393;51.446;6.800;2023-12-20T07:01:38;16.17;;;5.10;;
14613;SDS011;7393;51.446;6.800;2023-12-20T07:04:05;17.20;;;4.97;;
14613;SDS011;7393;51.446;6.800;2023-12-20T07:06:32;15.70;;;5.47;;
14613;SDS011;7393;51.446;6.800;2023-12-20T07:08:58;16.53;;;4.33;;
14613;SDS011;7393;51.446;6.800;2023-12-20T07:11:25;14.73;;;4.73;;
14613;SDS011;7393;51.446;6.800;2023-12-20T07:13:53;18.60;;;4.67;;
14613;SDS011;7393;51.446;6.800;2023-12-20T07:16:21;15.37;;;4.50;;
14613;SDS011;7393;51.446;6.800;2023-12-20T07:18:48;20.03;;;4.87;;
14613;SDS011;7393;51.446;6.800;2023-12-20T07:21:15;18.80;;;4.43;;
14613;SDS011;7393;51.446;6.800;2023-12-20T07:23:41;18.33;;;4.60;;
14613;SDS011;7393;51.446;6.800;2023-12-20T07:26:08;12.87;;;4.50;;
14613;SDS011;7393;51.446;6.800;2023-12-20T07:28:36;17.10;;;5.20;;
14613;SDS011;7393;51.446;6.800;2023-12-20T07:31:04;17.53;;;4.50;;
14613;SDS011;7393;51.446;6.800;2023-12-20T07:33:31;13.43;;;4.30;;
14613;SDS011;7393;51.446;6.800;2023-12-20T07:35:59;19.80;;;4.90;;
14613;SDS011;7393;51.446;6.800;2023-12-20T07:38:25;14.53;;;4.80;;
14613;SDS011;7393;51.446;6.800;2023-12-20T07:40:52;13.97;;;5.47;;
14613;SDS011;7393;51.446;6.800;2023-12-20T07:43:19;12.57;;;4.83;;
14613;SDS011;7393;51.446;6.800;2023-12-20T07:45:46;18.80;;;4.90;;
14613;SDS011;7393;51.446;6.800;2023-12-20T07:48:14;24.03;;;4.97;;
14613;SDS011;7393;51.446;6.800;2023-12-20T07:50:41;17.23;;;4.77;;
14613;SDS011;7393;51.446;6.800;2023-12-20T07:53:08;14.13;;;4.10;;
14613;SDS011;7393;51.446;6.800;2023-12-20T07:55:35;10.47;;;4.67;;
14613;SDS011;7393;51.446;6.800;2023-12-20T07:58:02;16.80;;;4.47;;
14613;SDS011;7393;51.446;6.800;2023-12-20T08:00:30;15.97;;;5.00;;
14613;SDS011;7393;51.446;6.800;2023-12-20T08:02:56;13.40;;;4.37;;
14613;SDS011;7393;51.446;6.800;2023-12-20T08:05:25;18.07;;;5.40;;
14613;SDS011;7393;51.446;6.800;2023-12-20T08:07:51;19.43;;;5.43;;
14613;SDS011;7393;51.446;6.800;2023-12-20T08:10:19;14.03;;;5.00;;
14613;SDS011;7393;51.446;6.800;2023-12-20T08:12:45;19.37;;;5.77;;
14613;SDS011;7393;51.446;6.800;2023-12-20T08:15:12;18.80;;;5.73;;
14613;SDS011;7393;51.446;6.800;2023-12-20T08:17:39;12.17;;;5.47;;
14613;SDS011;7393;51.446;6.800;2023-12-20T08:20:06;16.70;;;5.37;;
14613;SDS011;7393;51.446;6.800;2023-12-20T08:22:35;18.77;;;5.13;;
14613;SDS011;7393;51.446;6.800;2023-12-20T08:25:02;21.40;;;5.37;;
14613;SDS011;7393;51.446;6.800;2023-12-20T08:27:29;16.63;;;6.10;;
14613;SDS011;7393;51.446;6.800;2023-12-20T08:29:56;16.70;;;4.43;;
14613;SDS011;7393;51.446;6.800;2023-12-20T08:32:24;16.73;;;6.00;;
14613;SDS011;7393;51.446;6.800;2023-12-20T08:34:51;20.03;;;5.13;;
14613;SDS011;7393;51.446;6.800;2023-12-20T08:37:18;20.53;;;5.57;;
14613;SDS011;7393;51.446;6.800;2023-12-20T08:39:46;17.17;;;5.43;;
14613;SDS011;7393;51.446;6.800;2023-12-20T08:42:13;17.23;;;4.87;;
14613;SDS011;7393;51.446;6.800;2023-12-20T08:44:40;17.33;;;4.47;;
14613;SDS011;7393;51.446;6.800;2023-12-20T08:47:07;19.60;;;4.60;;
14613;SDS011;7393;51.446;6.800;2023-12-20T08:49:38;24.87;;;5.70;;
14613;SDS011;7393;51.446;6.800;2023-12-20T08:52:05;19.47;;;4.67;;
14613;SDS011;7393;51.446;6.800;2023-12-20T08:54:32;12.70;;;3.60;;
14613;SDS011;7393;51.446;6.800;2023-12-20T08:57:00;19.63;;;4.73;;
14613;SDS011;7393;51.446;6.800;2023-12-20T08:59:27;18.90;;;3.80;;
14613;SDS011;7393;51.446;6.800;2023-12-20T09:01:54;14.67;;;4.10;;
14613;SDS011;7393;51.446;6.800;2023-12-20T09:04:21;14.80;;;4.33;;
14613;SDS011;7393;51.446;6.800;2023-12-20T09:06:47;15.90;;;3.63;;
14613;SDS011;7393;51.446;6.800;2023-12-20T09:09:14;14.03;;;4.07;;
14613;SDS011;7393;51.446;6.800;2023-12-20T09:11:41;14.07;;;4.27;;
14613;SDS011;7393;51.446;6.800;2023-12-20T09:14:09;14.33;;;4.00;;
14613;SDS011;7393;51.446;6.800;2023-12-20T09:16:36;11.90;;;4.17;;
14613;SDS011;7393;51.446;6.800;2023-12-20T09:19:03;13.23;;;4.13;;
14613;SDS011;7393;51.446;6.800;2023-12-20T09:21:30;13.43;;;4.07;;
14613;SDS011;7393;51.446;6.800;2023-12-20T09:23:56;13.00;;;3.60;;
14613;SDS011;7393;51.446;6.800;2023-12-20T09:26:23;18.20;;;4.70;;
14613;SDS011;7393;51.446;6.800;2023-12-20T09:28:50;18.33;;;3.87;;
14613;SDS011;7393;51.446;6.800;2023-12-20T09:31:18;16.10;;;4.37;;
14613;SDS011;7393;51.446;6.800;2023-12-20T09:33:45;14.17;;;3.93;;
14613;SDS011;7393;51.446;6.800;2023-12-20T09:36:12;16.27;;;4.63;;
14613;SDS011;7393;51.446;6.800;2023-12-20T09:38:39;10.13;;;3.47;;
14613;SDS011;7393;51.446;6.800;2023-12-20T09:41:07;15.13;;;3.77;;
14613;SDS011;7393;51.446;6.800;2023-12-20T09:43:34;12.77;;;3.90;;
14613;SDS011;7393;51.446;6.800;2023-12-20T09:46:04;22.57;;;4.47;;
14613;SDS011;7393;51.446;6.800;2023-12-20T09:48:34;16.03;;;4.37;;
14613;SDS011;7393;51.446;6.800;2023-12-20T09:51:02;20.87;;;5.13;;
14613;SDS011;7393;51.446;6.800;2023-12-20T09:53:29;14.50;;;3.87;;
14613;SDS011;7393;51.446;6.800;2023-12-20T09:55:59;10.10;;;3.60;;
14613;SDS011;7393;51.446;6.800;2023-12-20T09:58:26;13.17;;;3.70;;
14613;SDS011;7393;51.446;6.800;2023-12-20T10:00:53;18.83;;;3.70;;
14613;SDS011;7393;51.446;6.800;2023-12-20T10:03:22;20.33;;;3.93;;
14613;SDS011;7393;51.446;6.800;2023-12-20T10:05:52;17.83;;;4.27;;
14613;SDS011;7393;51.446;6.800;2023-12-20T10:08:22;14.80;;;4.00;;
14613;SDS011;7393;51.446;6.800;2023-12-20T10:10:50;13.63;;;3.70;;
14613;SDS011;7393;51.446;6.800;2023-12-20T10:13:17;13.23;;;3.90;;
14613;SDS011;7393;51.446;6.800;2023-12-20T10:15:44;18.97;;;3.87;;
14613;SDS011;7393;51.446;6.800;2023-12-20T10:18:11;18.73;;;4.37;;
14613;SDS011;7393;51.446;6.800;2023-12-20T10:20:39;19.47;;;4.53;;
14613;SDS011;7393;51.446;6.800;2023-12-20T10:23:08;17.43;;;4.43;;
14613;SDS011;7393;51.446;6.800;2023-12-20T10:25:35;14.10;;;3.37;;
14613;SDS011;7393;51.446;6.800;2023-12-20T10:28:09;12.70;;;4.10;;
14613;SDS011;7393;51.446;6.800;2023-12-20T10:30:37;17.47;;;4.07;;
14613;SDS011;7393;51.446;6.800;2023-12-20T10:33:05;14.33;;;4.17;;
14613;SDS011;7393;51.446;6.800;2023-12-20T10:35:32;15.23;;;3.90;;
14613;SDS011;7393;51.446;6.800;2023-12-20T10:38:00;11.87;;;3.77;;
14613;SDS011;7393;51.446;6.800;2023-12-20T10:40:31;14.00;;;3.93;;
14613;SDS011;7393;51.446;6.800;2023-12-20T10:43:02;17.50;;;4.53;;
14613;SDS011;7393;51.446;6.800;2023-12-20T10:45:29;12.93;;;3.97;;
14613;SDS011;7393;51.446;6.800;2023-12-20T10:47:56;19.43;;;4.87;;
14613;SDS011;7393;51.446;6.800;2023-12-20T10:50:26;15.67;;;3.67;;
14613;SDS011;7393;51.446;6.800;2023-12-20T10:52:53;16.03;;;4.10;;
14613;SDS011;7393;51.446;6.800;2023-12-20T10:55:21;12.80;;;3.90;;
14613;SDS011;7393;51.446;6.800;2023-12-20T10:57:50;13.57;;;4.10;;
14613;SDS011;7393;51.446;6.800;2023-12-20T11:00:18;15.63;;;4.53;;
14613;SDS011;7393;51.446;6.800;2023-12-20T11:02:47;13.87;;;4.20;;
14613;SDS011;7393;51.446;6.800;2023-12-20T11:05:19;12.67;;;3.80;;
14613;SDS011;7393;51.446;6.800;2023-12-20T11:07:56;17.40;;;4.43;;
14613;SDS011;7393;51.446;6.800;2023-12-20T11:10:29;13.63;;;3.87;;
14613;SDS011;7393;51.446;6.800;2023-12-20T11:13:03;11.00;;;3.90;;
14613;SDS011;7393;51.446;6.800;2023-12-20T11:15:35;18.00;;;4.10;;
14613;SDS011;7393;51.446;6.800;2023-12-20T11:18:03;11.10;;;3.73;;
14613;SDS011;7393;51.446;6.800;2023-12-20T11:20:35;13.60;;;3.57;;
14613;SDS011;7393;51.446;6.800;2023-12-20T11:23:03;15.00;;;3.83;;
14613;SDS011;7393;51.446;6.800;2023-12-20T11:25:33;14.73;;;4.33;;
14613;SDS011;7393;51.446;6.800;2023-12-20T11:28:13;15.30;;;3.73;;
14613;SDS011;7393;51.446;6.800;2023-12-20T11:30:46;16.80;;;4.70;;
14613;SDS011;7393;51.446;6.800;2023-12-20T11:33:13;8.33;;;3.70;;
14613;SDS011;7393;51.446;6.800;2023-12-20T11:35:41;11.50;;;4.37;;
14613;SDS011;7393;51.446;6.800;2023-12-20T11:38:08;13.13;;;4.50;;
14613;SDS011;7393;51.446;6.800;2023-12-20T11:40:35;11.40;;;4.50;;
14613;SDS011;7393;51.446;6.800;2023-12-20T11:43:02;15.40;;;4.40;;
14613;SDS011;7393;51.446;6.800;2023-12-20T11:45:31;11.73;;;4.27;;
14613;SDS011;7393;51.446;6.800;2023-12-20T11:47:59;10.87;;;3.90;;
14613;SDS011;7393;51.446;6.800;2023-12-20T11:50:27;18.00;;;4.50;;
14613;SDS011;7393;51.446;6.800;2023-12-20T11:52:55;18.43;;;4.00;;
14613;SDS011;7393;51.446;6.800;2023-12-20T11:55:22;15.60;;;4.30;;
14613;SDS011;7393;51.446;6.800;2023-12-20T11:57:49;12.87;;;4.53;;
14613;SDS011;7393;51.446;6.800;2023-12-20T12:00:17;18.40;;;6.87;;
14613;SDS011;7393;51.446;6.800;2023-12-20T12:02:56;12.67;;;5.00;;
14613;SDS011;7393;51.446;6.800;2023-12-20T12:05:23;13.67;;;4.20;;
14613;SDS011;7393;51.446;6.800;2023-12-20T12:07:50;15.43;;;3.97;;
14613;SDS011;7393;51.446;6.800;2023-12-20T12:10:17;13.80;;;4.87;;
14613;SDS011;7393;51.446;6.800;2023-12-20T12:12:44;13.07;;;4.40;;
14613;SDS011;7393;51.446;6.800;2023-12-20T12:15:11;18.77;;;4.33;;
14613;SDS011;7393;51.446;6.800;2023-12-20T12:17:38;8.47;;;3.97;;
14613;SDS011;7393;51.446;6.800;2023-12-20T12:20:07;16.83;;;4.40;;
14613;SDS011;7393;51.446;6.800;2023-12-20T12:22:35;18.20;;;4.47;;
14613;SDS011;7393;51.446;6.800;2023-12-20T12:25:09;11.73;;;3.87;;
14613;SDS011;7393;51.446;6.800;2023-12-20T12:27:36;14.73;;;3.90;;
14613;SDS011;7393;51.446;6.800;2023-12-20T12:30:04;13.33;;;4.00;;
14613;SDS011;7393;51.446;6.800;2023-12-20T12:32:33;17.10;;;4.50;;
14613;SDS011;7393;51.446;6.800;2023-12-20T12:35:00;11.97;;;3.70;;
14613;SDS011;7393;51.446;6.800;2023-12-20T12:37:30;13.23;;;4.23;;
14613;SDS011;7393;51.446;6.800;2023-12-20T12:39:57;13.80;;;3.83;;
14613;SDS011;7393;51.446;6.800;2023-12-20T12:42:23;11.20;;;3.83;;
14613;SDS011;7393;51.446;6.800;2023-12-20T12:44:53;14.67;;;4.10;;
14613;SDS011;7393;51.446;6.800;2023-12-20T12:47:20;18.47;;;3.87;;
14613;SDS011;7393;51.446;6.800;2023-12-20T12:49:47;16.47;;;4.10;;
14613;SDS011;7393;51.446;6.800;2023-12-20T12:52:17;11.10;;;3.77;;
14613;SDS011;7393;51.446;6.800;2023-12-20T12:54:45;12.93;;;3.87;;
14613;SDS011;7393;51.446;6.800;2023-12-20T12:57:13;15.63;;;4.23;;
14613;SDS011;7393;51.446;6.800;2023-12-20T12:59:40;10.50;;;4.20;;
14613;SDS011;7393;51.446;6.800;2023-12-20T13:02:07;12.53;;;4.13;;
14613;SDS011;7393;51.446;6.800;2023-12-20T13:04:34;17.30;;;4.57;;
14613;SDS011;7393;51.446;6.800;2023-12-20T13:07:01;12.37;;;4.33;;
14613;SDS011;7393;51.446;6.800;2023-12-20T13:09:28;15.73;;;4.10;;
14613;SDS011;7393;51.446;6.800;2023-12-20T13:11:56;14.67;;;4.40;;
14613;SDS011;7393;51.446;6.800;2023-12-20T13:14:24;14.73;;;4.30;;
14613;SDS011;7393;51.446;6.800;2023-12-20T13:16:50;10.13;;;4.10;;
14613;SDS011;7393;51.446;6.800;2023-12-20T13:19:17;12.37;;;4.50;;
14613;SDS011;7393;51.446;6.800;2023-12-20T13:21:44;12.63;;;4.53;;
14613;SDS011;7393;51.446;6.800;2023-12-20T13:24:10;12.00;;;4.63;;
14613;SDS011;7393;51.446;6.800;2023-12-20T13:26:37;15.97;;;4.93;;
14613;SDS011;7393;51.446;6.800;2023-12-20T13:29:05;11.13;;;4.70;;
14613;SDS011;7393;51.446;6.800;2023-12-20T13:31:32;11.97;;;4.50;;
14613;SDS011;7393;51.446;6.800;2023-12-20T13:34:01;15.90;;;5.20;;
14613;SDS011;7393;51.446;6.800;2023-12-20T13:36:28;10.77;;;4.53;;
14613;SDS011;7393;51.446;6.800;2023-12-20T13:38:55;16.20;;;5.30;;
14613;SDS011;7393;51.446;6.800;2023-12-20T13:41:21;15.23;;;5.67;;
14613;SDS011;7393;51.446;6.800;2023-12-20T13:43:48;14.63;;;5.17;;
14613;SDS011;7393;51.446;6.800;2023-12-20T13:46:17;9.80;;;5.60;;
14613;SDS011;7393;51.446;6.800;2023-12-20T13:48:44;15.80;;;5.47;;
14613;SDS011;7393;51.446;6.800;2023-12-20T13:51:11;11.23;;;4.80;;
14613;SDS011;7393;51.446;6.800;2023-12-20T13:53:38;15.50;;;4.83;;
14613;SDS011;7393;51.446;6.800;2023-12-20T13:56:05;10.47;;;5.63;;
14613;SDS011;7393;51.446;6.800;2023-12-20T13:58:32;12.13;;;5.20;;
14613;SDS011;7393;51.446;6.800;2023-12-20T14:00:58;15.70;;;4.90;;
14613;SDS011;7393;51.446;6.800;2023-12-20T14:03:26;14.53;;;4.90;;
14613;SDS011;7393;51.446;6.800;2023-12-20T14:05:53;12.27;;;5.07;;
14613;SDS011;7393;51.446;6.800;2023-12-20T14:08:20;13.00;;;5.37;;
14613;SDS011;7393;51.446;6.800;2023-12-20T14:10:47;9.27;;;5.03;;
14613;SDS011;7393;51.446;6.800;2023-12-20T14:13:15;13.43;;;5.27;;
14613;SDS011;7393;51.446;6.800;2023-12-20T14:15:42;17.63;;;5.83;;
14613;SDS011;7393;51.446;6.800;2023-12-20T14:18:09;14.53;;;6.27;;
14613;SDS011;7393;51.446;6.800;2023-12-20T14:20:39;14.60;;;6.17;;
14613;SDS011;7393;51.446;6.800;2023-12-20T14:23:07;14.53;;;5.97;;
14613;SDS011;7393;51.446;6.800;2023-12-20T14:25:34;14.87;;;6.20;;
14613;SDS011;7393;51.446;6.800;2023-12-20T14:28:02;14.93;;;6.03;;
14613;SDS011;7393;51.446;6.800;2023-12-20T14:30:29;16.67;;;6.07;;
14613;SDS011;7393;51.446;6.800;2023-12-20T14:32:56;12.50;;;6.07;;
14613;SDS011;7393;51.446;6.800;2023-12-20T14:35:23;14.10;;;6.03;;
14613;SDS011;7393;51.446;6.800;2023-12-20T14:37:51;15.20;;;5.77;;
14613;SDS011;7393;51.446;6.800;2023-12-20T14:40:18;14.97;;;5.37;;
14613;SDS011;7393;51.446;6.800;2023-12-20T14:42:45;15.90;;;5.80;;
14613;SDS011;7393;51.446;6.800;2023-12-20T14:45:12;18.77;;;5.83;;
14613;SDS011;7393;51.446;6.800;2023-12-20T14:47:41;13.90;;;4.97;;
14613;SDS011;7393;51.446;6.800;2023-12-20T14:50:08;13.03;;;5.00;;